Terminal Aerodrome Forecast
Issued by NWS

Home | Current Version | Previous Version | Text Only | Print | Product List | Glossary On
Versions: 1 2 3 4 5 6 7 8 9 10 11 12 13 14 15 16 17
575
FTAK31 PAJN 301124
TAFAJN
TAF
PAJN 301124Z 3012/0112 VRB05KT P6SM FEW120 BKN150
     FM301800 13005KT P6SM BKN050 OVC100
      TEMPO 3018/3021 24006KT SCT050 BKN100
     FM302100 13008KT P6SM VCSH OVC050
     FM010300 12010KT P6SM -SHRA SCT030 OVC050=

USA.gov is the U.S. government's official web portal to all federal, state and local government web resources and services.